March ARB Airport Riverside US
ICAO: KRIV
IATA: RIV
Category: Medium
Scheduled Services: No

Elevation: 1536 ft
TransAlt. 18000 ft.

Airport Communications:
APP/DEP:119.25
ATIS:134.75
GND/CLNC DEL:121.75
ANG OPS:29.37
PMSV METRO:23.98
COMD POST:31.1
PTD:37.22
RIVERSIDE RDO:113.4
TWR:127.65

KRIV Zoom In..

If you have problems with the map follow the link
https://www.worldairports.se/pages/airport.php?
ICAO=KRIV

Runways:

(A) RW 12 length 3059 ft width 100 ft
---- / hdg 121

(B) RW 14 length 13300 ft width 200 ft
---- / hdg 136

(C) RW 30 length 3059 ft width 100 ft
---- / hdg 301

(D) RW 32 length 13300 ft width 200 ft
ILS 110.10 / hdg 316

Location; KRIV
Day. 20 / Time. 07.58 Zulu
* Altimeter: 30.06
* Temperature: 11° c. 51.8°f.
* Wind from: 310° Speed 04 kn.
Dewpoint: 01° c.
Visibility: 10 Statute Miles.
Clouds: Clear (automated report).

KRIV 200758Z AUTO 31004KT 10SM CLR 11/01 A3006 RMK AO2 SLP173 T01060014 402390031


Wind From 310°
Speed 04 kn.

 
 
jpsmedia worldairports.se 2020   terms of use